Time;durP1;ratioP1;P1;durP2;ratioP2;P2;SDS_P1;SDS_P2;PMS_P1;PMS_P2;Temp;Humidity;BMP_temperature;BMP_pressure;BME280_temperature;BME280_humidity;BME280_pressure;Samples;Min_cycle;Max_cycle;Signal;HPM_P1;HPM_P2
2024/02/13 00:01:53;;;;;;;229.32;59.15;;;;;;;;;;4994005;28;20181;-45
2024/02/13 00:04:20;;;;;;;227.85;58.67;;;;;;;;;;4994319;28;20173;-44
2024/02/13 00:06:46;;;;;;;232.48;61.53;;;;;;;;;;4992880;28;20243;-44
2024/02/13 00:09:13;;;;;;;229.45;59.75;;;;;;;;;;4992303;28;20193;-44
2024/02/13 00:11:39;;;;;;;230.13;59.08;;;;;;;;;;4992226;28;20172;-44
2024/02/13 00:14:07;;;;;;;229.95;59.85;;;;;;;;;;4993263;28;20683;-44
2024/02/13 00:16:38;;;;;;;228.50;59.08;;;;;;;;;;4992723;28;20168;-44
2024/02/13 00:19:06;;;;;;;226.02;58.53;;;;;;;;;;4987907;28;20204;-45
2024/02/13 00:21:35;;;;;;;229.00;59.67;;;;;;;;;;4992618;28;20184;-44
2024/02/13 00:24:01;;;;;;;225.80;56.92;;;;;;;;;;4994291;28;20727;-44
2024/02/13 00:26:27;;;;;;;235.75;63.60;;;;;;;;;;4993110;28;20227;-44
2024/02/13 00:28:53;;;;;;;227.85;57.85;;;;;;;;;;4993956;28;20201;-44
2024/02/13 00:31:20;;;;;;;229.07;59.40;;;;;;;;;;4994015;28;20169;-45
2024/02/13 00:33:48;;;;;;;225.75;56.17;;;;;;;;;;4995905;28;20443;-44
2024/02/13 00:36:17;;;;;;;225.68;56.00;;;;;;;;;;4993413;28;20169;-44
2024/02/13 00:38:45;;;;;;;225.05;56.58;;;;;;;;;;4993580;28;20232;-44
2024/02/13 00:41:11;;;;;;;228.50;58.88;;;;;;;;;;4993389;28;20169;-44
2024/02/13 00:43:37;;;;;;;226.52;56.97;;;;;;;;;;4993614;28;20539;-45
2024/02/13 00:46:03;;;;;;;225.18;56.22;;;;;;;;;;4995393;28;20204;-44
2024/02/13 00:48:30;;;;;;;223.93;55.45;;;;;;;;;;4993419;28;20247;-44
2024/02/13 00:50:56;;;;;;;226.18;56.83;;;;;;;;;;4993543;28;20166;-44
2024/02/13 00:53:22;;;;;;;226.27;58.20;;;;;;;;;;4988457;28;20185;-45
2024/02/13 00:55:49;;;;;;;229.75;58.58;;;;;;;;;;4992982;28;20181;-45
2024/02/13 00:58:16;;;;;;;229.52;57.92;;;;;;;;;;4993131;28;20173;-44
2024/02/13 01:00:42;;;;;;;226.73;57.13;;;;;;;;;;4993386;28;20238;-44
2024/02/13 01:03:10;;;;;;;226.00;56.50;;;;;;;;;;4993247;28;20188;-45
2024/02/13 01:05:40;;;;;;;226.15;56.83;;;;;;;;;;4992944;28;20619;-44
2024/02/13 01:08:06;;;;;;;228.82;57.95;;;;;;;;;;4985218;28;20171;-44
2024/02/13 01:10:32;;;;;;;226.35;56.42;;;;;;;;;;4993167;28;20173;-44
2024/02/13 01:12:59;;;;;;;227.73;58.67;;;;;;;;;;4992677;28;20664;-44
2024/02/13 01:15:26;;;;;;;229.07;59.08;;;;;;;;;;4992777;28;20408;-44
2024/02/13 01:17:52;;;;;;;230.85;59.30;;;;;;;;;;4996622;28;20177;-45
2024/02/13 01:20:18;;;;;;;229.17;58.60;;;;;;;;;;4993109;28;20205;-44
2024/02/13 01:22:44;;;;;;;226.90;57.28;;;;;;;;;;4992659;28;20480;-44
2024/02/13 01:25:13;;;;;;;229.77;60.33;;;;;;;;;;4992686;28;20205;-44
2024/02/13 01:27:40;;;;;;;226.90;57.63;;;;;;;;;;4992437;28;20893;-44
2024/02/13 01:30:09;;;;;;;227.40;58.33;;;;;;;;;;4992749;28;20327;-44
2024/02/13 01:32:35;;;;;;;227.20;58.08;;;;;;;;;;4988701;28;20162;-44
2024/02/13 01:35:01;;;;;;;226.98;59.20;;;;;;;;;;4992633;28;20188;-44
2024/02/13 01:37:27;;;;;;;226.82;58.08;;;;;;;;;;4999289;28;20207;-44
2024/02/13 01:39:53;;;;;;;228.50;58.33;;;;;;;;;;4992401;28;20204;-44
2024/02/13 01:42:19;;;;;;;228.75;59.75;;;;;;;;;;4992455;28;20506;-44
2024/02/13 01:44:45;;;;;;;230.65;60.42;;;;;;;;;;4992399;28;20674;-44
2024/02/13 01:47:12;;;;;;;229.85;60.17;;;;;;;;;;4992095;28;20169;-44
2024/02/13 01:49:38;;;;;;;226.85;57.83;;;;;;;;;;4992321;28;20192;-44
2024/02/13 01:52:05;;;;;;;229.60;59.90;;;;;;;;;;5010621;28;20192;-45
2024/02/13 01:54:31;;;;;;;226.40;57.17;;;;;;;;;;4997355;28;20263;-45
2024/02/13 01:56:59;;;;;;;227.15;58.95;;;;;;;;;;5001703;28;20258;-44
2024/02/13 01:59:25;;;;;;;226.63;57.80;;;;;;;;;;5005035;28;20201;-44
2024/02/13 02:01:54;;;;;;;230.00;60.38;;;;;;;;;;4994059;28;20173;-44
2024/02/13 02:04:20;;;;;;;225.85;57.00;;;;;;;;;;5011432;28;20156;-44
2024/02/13 02:06:49;;;;;;;228.45;58.08;;;;;;;;;;4992171;28;20260;-44
2024/02/13 02:09:16;;;;;;;226.38;57.50;;;;;;;;;;5006472;28;20591;-45
2024/02/13 02:11:42;;;;;;;228.75;59.17;;;;;;;;;;5000734;28;20248;-44
2024/02/13 02:14:09;;;;;;;226.55;57.35;;;;;;;;;;4999020;28;20598;-44
2024/02/13 02:16:35;;;;;;;231.90;62.10;;;;;;;;;;5008274;28;20839;-44
2024/02/13 02:19:02;;;;;;;227.27;59.13;;;;;;;;;;4991981;28;20189;-44
2024/02/13 02:21:29;;;;;;;224.50;56.72;;;;;;;;;;5010780;28;20187;-44
2024/02/13 02:23:55;;;;;;;225.90;58.42;;;;;;;;;;4996449;28;20523;-44
2024/02/13 02:26:21;;;;;;;226.77;58.03;;;;;;;;;;5002355;28;20207;-44
2024/02/13 02:28:47;;;;;;;225.63;57.30;;;;;;;;;;5004217;28;20204;-45
2024/02/13 02:31:15;;;;;;;224.82;56.75;;;;;;;;;;4994452;28;20404;-44
2024/02/13 02:33:43;;;;;;;223.10;55.75;;;;;;;;;;5011394;28;20226;-44
2024/02/13 02:36:09;;;;;;;224.93;57.13;;;;;;;;;;4991955;28;20578;-44
2024/02/13 02:38:38;;;;;;;225.90;57.33;;;;;;;;;;4992135;28;20200;-44
2024/02/13 02:41:04;;;;;;;224.25;57.30;;;;;;;;;;4992101;28;20177;-44
2024/02/13 02:43:30;;;;;;;224.63;56.83;;;;;;;;;;4983576;28;20184;-44
2024/02/13 02:45:56;;;;;;;223.27;56.60;;;;;;;;;;4975037;28;20204;-44
2024/02/13 02:48:22;;;;;;;222.40;56.00;;;;;;;;;;4991499;28;20404;-44
2024/02/13 02:50:47;;;;;;;222.57;56.77;;;;;;;;;;4972909;28;20413;-44
2024/02/13 02:53:14;;;;;;;224.57;57.03;;;;;;;;;;4986504;28;20467;-44
2024/02/13 02:55:40;;;;;;;222.80;56.20;;;;;;;;;;4991325;28;20447;-44
2024/02/13 02:58:08;;;;;;;225.90;57.80;;;;;;;;;;4984470;28;20725;-44
2024/02/13 03:00:35;;;;;;;222.43;56.55;;;;;;;;;;4975811;28;20200;-44
2024/02/13 03:03:02;;;;;;;220.63;55.45;;;;;;;;;;4992283;28;20656;-44
2024/02/13 03:05:28;;;;;;;225.30;58.03;;;;;;;;;;4974740;28;20197;-44
2024/02/13 03:07:56;;;;;;;224.82;57.53;;;;;;;;;;4990899;28;20707;-44
2024/02/13 03:10:22;;;;;;;225.77;57.83;;;;;;;;;;4990252;28;20251;-44
2024/02/13 03:12:48;;;;;;;226.17;57.87;;;;;;;;;;4989606;28;20263;-45
2024/02/13 03:15:14;;;;;;;231.90;62.97;;;;;;;;;;4989252;28;20432;-44
2024/02/13 03:17:40;;;;;;;222.33;55.70;;;;;;;;;;4991552;28;20665;-43
2024/02/13 03:20:09;;;;;;;224.98;56.70;;;;;;;;;;4988927;28;20459;-44
2024/02/13 03:22:37;;;;;;;222.23;56.25;;;;;;;;;;4988052;28;20547;-44
2024/02/13 03:25:04;;;;;;;222.40;55.95;;;;;;;;;;4987356;28;20197;-44
2024/02/13 03:27:30;;;;;;;224.98;57.60;;;;;;;;;;4986901;28;20538;-44
2024/02/13 03:29:56;;;;;;;221.73;56.90;;;;;;;;;;4988594;28;20272;-44
2024/02/13 03:32:22;;;;;;;224.45;57.33;;;;;;;;;;4989667;28;20498;-44
2024/02/13 03:34:48;;;;;;;221.15;55.58;;;;;;;;;;4985786;28;20265;-44
2024/02/13 03:37:14;;;;;;;222.30;56.27;;;;;;;;;;4985065;28;20296;-44
2024/02/13 03:39:42;;;;;;;222.97;56.80;;;;;;;;;;4984501;28;20436;-44
2024/02/13 03:42:09;;;;;;;224.15;57.47;;;;;;;;;;4984386;28;20413;-43
2024/02/13 03:44:37;;;;;;;222.57;57.08;;;;;;;;;;4991024;28;20653;-44
2024/02/13 03:47:05;;;;;;;221.10;56.15;;;;;;;;;;4991106;28;20224;-45
2024/02/13 03:49:31;;;;;;;222.63;57.22;;;;;;;;;;4991003;28;20205;-44
2024/02/13 03:51:58;;;;;;;223.63;57.03;;;;;;;;;;4990612;28;20839;-44
2024/02/13 03:54:24;;;;;;;224.50;56.83;;;;;;;;;;4989382;28;20189;-44
2024/02/13 03:56:50;;;;;;;221.50;55.75;;;;;;;;;;4992731;28;20203;-44
2024/02/13 03:59:16;;;;;;;225.20;56.22;;;;;;;;;;4992004;28;20267;-45
2024/02/13 04:01:43;;;;;;;221.57;56.00;;;;;;;;;;4995089;28;20267;-43
2024/02/13 04:04:10;;;;;;;223.05;56.92;;;;;;;;;;4991872;28;20853;-44
2024/02/13 04:06:36;;;;;;;222.23;57.08;;;;;;;;;;4990674;28;20250;-43
2024/02/13 04:09:03;;;;;;;222.73;56.65;;;;;;;;;;4990810;28;20193;-44
2024/02/13 04:11:30;;;;;;;224.60;57.72;;;;;;;;;;4992159;28;20243;-44
2024/02/13 04:13:56;;;;;;;223.43;56.38;;;;;;;;;;4994330;28;20184;-44
2024/02/13 04:16:22;;;;;;;222.23;56.28;;;;;;;;;;4994010;28;20259;-44
2024/02/13 04:18:48;;;;;;;220.23;54.90;;;;;;;;;;4993957;28;20193;-44
2024/02/13 04:21:17;;;;;;;224.87;57.77;;;;;;;;;;4996349;28;20177;-44
2024/02/13 04:23:46;;;;;;;226.38;58.20;;;;;;;;;;4993837;28;21017;-44
2024/02/13 04:26:12;;;;;;;224.68;58.63;;;;;;;;;;4993470;28;20235;-44
2024/02/13 04:28:42;;;;;;;223.52;57.08;;;;;;;;;;4993761;28;20232;-44
2024/02/13 04:31:11;;;;;;;225.68;58.10;;;;;;;;;;4994064;28;20201;-43
2024/02/13 04:33:37;;;;;;;224.40;56.45;;;;;;;;;;4990641;28;20248;-44
2024/02/13 04:36:04;;;;;;;222.17;55.77;;;;;;;;;;4993773;28;20315;-44
2024/02/13 04:38:33;;;;;;;224.40;57.05;;;;;;;;;;4993572;28;20498;-44
2024/02/13 04:40:59;;;;;;;223.18;56.53;;;;;;;;;;4994005;28;20660;-44
2024/02/13 04:43:25;;;;;;;223.52;56.25;;;;;;;;;;4993855;28;20528;-43
2024/02/13 04:45:51;;;;;;;223.27;55.80;;;;;;;;;;4993169;28;20193;-44
2024/02/13 04:48:18;;;;;;;223.97;57.67;;;;;;;;;;4994008;28;20227;-44
2024/02/13 04:50:45;;;;;;;223.63;55.10;;;;;;;;;;4993128;28;20420;-44
2024/02/13 04:53:11;;;;;;;223.80;56.25;;;;;;;;;;4993621;28;20632;-44
2024/02/13 04:55:38;;;;;;;224.52;57.40;;;;;;;;;;4993085;28;20693;-44
2024/02/13 04:58:17;;;;;;;224.13;56.30;;;;;;;;;;4993170;28;20590;-44
2024/02/13 05:00:51;;;;;;;222.43;55.38;;;;;;;;;;4990617;28;20347;-44
2024/02/13 05:03:25;;;;;;;226.55;57.70;;;;;;;;;;4992934;28;20185;-44
2024/02/13 05:08:36;;;;;;;223.70;56.20;;;;;;;;;;4989291;28;20199;-43
2024/02/13 05:11:02;;;;;;;222.63;54.97;;;;;;;;;;4992972;28;20216;-44
2024/02/13 05:13:31;;;;;;;225.52;56.90;;;;;;;;;;4992965;28;20172;-44
2024/02/13 05:15:58;;;;;;;223.15;56.13;;;;;;;;;;4992402;28;20177;-43
2024/02/13 05:18:24;;;;;;;225.98;57.55;;;;;;;;;;4992939;28;20209;-44
2024/02/13 05:20:50;;;;;;;223.87;55.93;;;;;;;;;;4992766;28;20181;-44
2024/02/13 05:23:16;;;;;;;223.82;55.97;;;;;;;;;;4992719;28;20419;-44
2024/02/13 05:25:42;;;;;;;223.80;56.90;;;;;;;;;;4992226;28;20219;-44
2024/02/13 05:28:09;;;;;;;223.63;55.30;;;;;;;;;;4992408;28;20502;-44
2024/02/13 05:30:36;;;;;;;227.43;57.83;;;;;;;;;;4992427;28;20415;-44
2024/02/13 05:33:02;;;;;;;223.52;56.10;;;;;;;;;;4988390;28;20169;-44
2024/02/13 05:35:28;;;;;;;227.82;59.25;;;;;;;;;;4992178;28;20227;-43
2024/02/13 05:37:54;;;;;;;224.35;55.78;;;;;;;;;;4992879;28;20675;-44
2024/02/13 05:40:20;;;;;;;222.87;56.83;;;;;;;;;;4992452;28;20232;-44
2024/02/13 05:42:46;;;;;;;224.73;56.25;;;;;;;;;;4992272;28;20424;-44
2024/02/13 05:45:12;;;;;;;227.60;59.30;;;;;;;;;;4991795;28;20232;-44
2024/02/13 05:47:38;;;;;;;224.63;56.95;;;;;;;;;;4992133;28;20175;-43
2024/02/13 05:50:07;;;;;;;221.32;54.85;;;;;;;;;;4992236;28;20185;-43
2024/02/13 05:52:33;;;;;;;222.50;55.90;;;;;;;;;;4992147;28;20173;-43
2024/02/13 05:54:59;;;;;;;223.02;56.47;;;;;;;;;;4991808;28;20645;-44
2024/02/13 05:57:25;;;;;;;222.88;56.05;;;;;;;;;;4991766;28;20736;-44
2024/02/13 05:59:51;;;;;;;224.30;56.03;;;;;;;;;;4991727;28;20304;-44
2024/02/13 06:02:20;;;;;;;223.27;56.70;;;;;;;;;;4992216;28;20255;-44
2024/02/13 06:04:46;;;;;;;224.52;56.92;;;;;;;;;;4991724;28;20212;-43
2024/02/13 06:07:13;;;;;;;224.98;57.00;;;;;;;;;;4991740;28;20180;-44
2024/02/13 06:09:39;;;;;;;224.75;56.20;;;;;;;;;;4991730;28;20192;-44
2024/02/13 06:12:10;;;;;;;221.60;54.23;;;;;;;;;;4991796;28;20173;-44
2024/02/13 06:14:37;;;;;;;224.40;56.67;;;;;;;;;;4988904;28;20981;-44
2024/02/13 06:17:03;;;;;;;222.52;55.60;;;;;;;;;;4991492;28;20173;-44
2024/02/13 06:19:29;;;;;;;223.38;56.10;;;;;;;;;;4990742;28;20208;-44
2024/02/13 06:21:55;;;;;;;222.93;54.87;;;;;;;;;;4991709;28;20181;-44
2024/02/13 06:24:21;;;;;;;220.50;54.17;;;;;;;;;;4991913;28;20412;-44
2024/02/13 06:26:49;;;;;;;227.13;58.50;;;;;;;;;;4991019;28;20495;-44
2024/02/13 06:29:18;;;;;;;221.82;55.13;;;;;;;;;;4991485;28;20455;-44
2024/02/13 06:31:44;;;;;;;224.45;56.72;;;;;;;;;;4991407;28;20273;-44
2024/02/13 06:34:10;;;;;;;223.07;57.03;;;;;;;;;;4991452;28;20212;-44
2024/02/13 06:36:36;;;;;;;225.18;57.00;;;;;;;;;;4987714;28;20408;-44
2024/02/13 06:39:02;;;;;;;221.10;55.30;;;;;;;;;;4991298;28;20201;-43
2024/02/13 06:41:28;;;;;;;224.50;56.75;;;;;;;;;;4991361;28;20421;-44
2024/02/13 06:43:54;;;;;;;221.82;56.03;;;;;;;;;;4994341;28;20263;-43
2024/02/13 06:46:20;;;;;;;225.07;58.00;;;;;;;;;;4994667;28;20299;-43
2024/02/13 06:48:47;;;;;;;224.63;57.57;;;;;;;;;;4995239;28;20592;-44
2024/02/13 06:51:14;;;;;;;224.93;57.58;;;;;;;;;;4995858;28;20413;-44
2024/02/13 06:53:40;;;;;;;226.57;59.42;;;;;;;;;;4992146;28;20169;-44
2024/02/13 06:56:06;;;;;;;222.10;56.40;;;;;;;;;;4995153;28;20611;-44
2024/02/13 06:58:33;;;;;;;224.35;57.92;;;;;;;;;;4996605;28;20569;-44
2024/02/13 07:00:59;;;;;;;226.52;58.45;;;;;;;;;;4997605;28;20656;-44
2024/02/13 07:03:25;;;;;;;225.07;57.67;;;;;;;;;;4997871;28;20180;-44
2024/02/13 07:05:51;;;;;;;222.53;56.80;;;;;;;;;;4995671;28;20710;-44
2024/02/13 07:08:17;;;;;;;232.00;62.23;;;;;;;;;;4992676;28;20524;-44
2024/02/13 07:10:43;;;;;;;224.45;57.25;;;;;;;;;;4990109;28;20516;-43
2024/02/13 07:13:09;;;;;;;223.88;57.25;;;;;;;;;;4991209;28;20181;-44
2024/02/13 07:15:36;;;;;;;225.13;58.28;;;;;;;;;;4990898;28;20259;-44
2024/02/13 07:18:03;;;;;;;224.07;57.67;;;;;;;;;;4986634;28;20181;-43
2024/02/13 07:20:29;;;;;;;228.32;60.30;;;;;;;;;;4991432;28;20184;-44
2024/02/13 07:22:55;;;;;;;227.43;61.10;;;;;;;;;;4990999;28;20181;-44
2024/02/13 07:25:21;;;;;;;229.02;61.70;;;;;;;;;;4990634;28;20460;-44
2024/02/13 07:27:48;;;;;;;224.55;60.03;;;;;;;;;;4990790;28;20641;-44
2024/02/13 07:30:15;;;;;;;225.27;57.67;;;;;;;;;;4992331;28;20197;-44
2024/02/13 07:32:41;;;;;;;224.07;56.30;;;;;;;;;;4994568;28;20216;-44
2024/02/13 07:35:09;;;;;;;233.10;63.60;;;;;;;;;;4994886;28;20184;-43
2024/02/13 07:37:35;;;;;;;224.32;59.63;;;;;;;;;;4991599;28;20235;-44
2024/02/13 07:40:01;;;;;;;222.70;56.80;;;;;;;;;;4994403;28;20200;-44
2024/02/13 07:42:28;;;;;;;226.15;57.88;;;;;;;;;;4994441;28;20430;-44
2024/02/13 07:44:55;;;;;;;228.43;62.78;;;;;;;;;;4994376;28;20177;-44
2024/02/13 07:47:21;;;;;;;223.90;56.63;;;;;;;;;;4994229;28;20169;-44
2024/02/13 07:49:48;;;;;;;223.73;57.53;;;;;;;;;;4994395;28;20782;-44
2024/02/13 07:52:14;;;;;;;226.48;58.95;;;;;;;;;;4994238;28;20173;-44
2024/02/13 07:54:40;;;;;;;230.60;62.50;;;;;;;;;;4994197;28;20169;-44
2024/02/13 07:57:07;;;;;;;225.50;58.20;;;;;;;;;;4994241;28;20700;-43
2024/02/13 07:59:33;;;;;;;228.35;60.13;;;;;;;;;;4994133;28;20595;-44
2024/02/13 08:01:59;;;;;;;225.77;59.47;;;;;;;;;;4994183;28;20545;-44
2024/02/13 08:04:25;;;;;;;227.87;61.00;;;;;;;;;;4993950;28;20950;-43
2024/02/13 08:06:51;;;;;;;227.07;60.60;;;;;;;;;;4993615;28;20870;-43
2024/02/13 08:09:19;;;;;;;230.80;64.67;;;;;;;;;;4994029;28;20809;-44
2024/02/13 08:11:45;;;;;;;231.02;64.68;;;;;;;;;;4994151;28;20822;-44
2024/02/13 08:14:11;;;;;;;227.77;61.70;;;;;;;;;;4992647;28;20173;-44
2024/02/13 08:16:39;;;;;;;231.93;63.65;;;;;;;;;;4993891;28;20420;-44
2024/02/13 08:19:05;;;;;;;230.32;63.55;;;;;;;;;;4993533;28;20284;-44
2024/02/13 08:21:30;;;;;;;229.27;62.38;;;;;;;;;;4992979;28;20260;-44
2024/02/13 08:23:57;;;;;;;230.47;64.27;;;;;;;;;;4993558;28;20192;-44
2024/02/13 08:26:23;;;;;;;229.60;61.85;;;;;;;;;;4992036;28;20459;-44
2024/02/13 08:28:49;;;;;;;230.07;62.87;;;;;;;;;;4992193;28;20215;-44
2024/02/13 08:31:15;;;;;;;235.60;65.82;;;;;;;;;;4992628;28;20428;-44
2024/02/13 08:33:41;;;;;;;230.50;62.80;;;;;;;;;;4993264;28;20180;-44
2024/02/13 08:36:07;;;;;;;230.82;62.80;;;;;;;;;;4993513;28;20526;-44
2024/02/13 08:38:33;;;;;;;231.95;63.25;;;;;;;;;;4993319;28;20657;-43
2024/02/13 08:41:00;;;;;;;232.57;64.40;;;;;;;;;;4993297;28;20177;-44
2024/02/13 08:43:26;;;;;;;230.02;62.80;;;;;;;;;;4992919;28;20798;-44
2024/02/13 08:45:52;;;;;;;232.40;64.60;;;;;;;;;;4992922;28;20193;-44
2024/02/13 08:48:18;;;;;;;233.00;65.67;;;;;;;;;;4993483;28;20913;-44
2024/02/13 08:50:44;;;;;;;232.67;66.40;;;;;;;;;;4993122;28;20453;-44
2024/02/13 08:53:10;;;;;;;233.97;67.60;;;;;;;;;;4993395;28;20435;-44
2024/02/13 08:55:36;;;;;;;235.80;69.05;;;;;;;;;;4989553;28;20413;-44
2024/02/13 08:58:02;;;;;;;237.73;69.75;;;;;;;;;;4993192;28;20185;-44
2024/02/13 09:00:29;;;;;;;238.23;69.90;;;;;;;;;;4994104;28;20219;-44
2024/02/13 09:02:56;;;;;;;239.13;71.43;;;;;;;;;;4993319;28;20506;-44
2024/02/13 09:05:22;;;;;;;238.15;71.05;;;;;;;;;;4992888;28;20199;-44
2024/02/13 09:07:48;;;;;;;238.80;69.67;;;;;;;;;;4993231;28;20191;-43
2024/02/13 09:10:14;;;;;;;239.60;72.07;;;;;;;;;;4993292;28;20436;-44
2024/02/13 09:12:41;;;;;;;240.97;73.87;;;;;;;;;;4993533;28;20918;-45
2024/02/13 09:15:11;;;;;;;249.73;81.43;;;;;;;;;;4992753;28;20420;-44
2024/02/13 09:17:49;;;;;;;243.60;74.40;;;;;;;;;;4989534;28;20671;-44
2024/02/13 09:20:15;;;;;;;241.20;73.00;;;;;;;;;;4992968;28;20279;-44
2024/02/13 09:22:45;;;;;;;243.38;76.15;;;;;;;;;;4993168;28;20201;-45
2024/02/13 09:25:14;;;;;;;244.18;77.80;;;;;;;;;;4988412;28;20200;-45
2024/02/13 09:27:40;;;;;;;241.18;75.75;;;;;;;;;;4993157;28;20181;-44
2024/02/13 09:30:07;;;;;;;241.70;77.32;;;;;;;;;;4992788;28;20296;-44
2024/02/13 09:32:37;;;;;;;245.35;77.75;;;;;;;;;;4992406;28;20555;-44
2024/02/13 09:35:07;;;;;;;238.68;73.00;;;;;;;;;;4993030;28;20573;-44
2024/02/13 09:37:39;;;;;;;241.48;75.63;;;;;;;;;;4991846;28;20254;-44
2024/02/13 09:40:06;;;;;;;238.52;73.57;;;;;;;;;;4992211;28;20669;-44
2024/02/13 09:42:32;;;;;;;242.38;77.05;;;;;;;;;;4992424;28;20207;-44
2024/02/13 09:44:58;;;;;;;245.38;78.32;;;;;;;;;;4991917;28;20219;-44
2024/02/13 09:47:25;;;;;;;246.13;79.20;;;;;;;;;;4991190;28;20572;-44
2024/02/13 09:49:52;;;;;;;240.60;74.50;;;;;;;;;;4990151;28;20197;-44
2024/02/13 09:52:19;;;;;;;245.50;78.20;;;;;;;;;;4992212;28;20169;-44
2024/02/13 09:54:45;;;;;;;244.50;77.65;;;;;;;;;;4991840;28;20173;-44
2024/02/13 09:57:11;;;;;;;246.05;77.97;;;;;;;;;;4992119;28;20688;-44
2024/02/13 09:59:38;;;;;;;248.20;79.07;;;;;;;;;;4992330;28;20209;-44
2024/02/13 10:02:05;;;;;;;247.45;79.63;;;;;;;;;;4992657;28;20222;-44
2024/02/13 10:04:31;;;;;;;245.43;77.50;;;;;;;;;;4992482;28;20239;-44
2024/02/13 10:07:00;;;;;;;249.50;81.38;;;;;;;;;;4992300;28;20203;-44
2024/02/13 10:09:28;;;;;;;250.07;80.90;;;;;;;;;;4992354;28;20234;-45
2024/02/13 10:11:56;;;;;;;251.25;84.53;;;;;;;;;;4991085;28;20647;-44
2024/02/13 10:14:22;;;;;;;246.98;82.35;;;;;;;;;;4992249;28;20264;-45
2024/02/13 10:16:50;;;;;;;247.60;81.57;;;;;;;;;;4992027;28;20179;-44
2024/02/13 10:19:17;;;;;;;247.57;83.32;;;;;;;;;;4992420;28;20479;-44
2024/02/13 10:21:49;;;;;;;248.88;82.28;;;;;;;;;;4992200;28;20187;-45
2024/02/13 10:24:15;;;;;;;252.07;85.47;;;;;;;;;;4991549;28;20566;-44
2024/02/13 10:26:41;;;;;;;249.47;82.27;;;;;;;;;;4991575;28;20203;-44
2024/02/13 10:29:07;;;;;;;245.95;78.43;;;;;;;;;;4991285;28;20475;-45
2024/02/13 10:31:37;;;;;;;246.23;80.15;;;;;;;;;;4992466;28;20239;-44
2024/02/13 10:34:04;;;;;;;247.00;81.32;;;;;;;;;;4992282;28;20529;-44
2024/02/13 10:36:34;;;;;;;245.45;81.80;;;;;;;;;;4992270;28;20184;-44
2024/02/13 10:39:05;;;;;;;250.30;84.00;;;;;;;;;;4991737;28;20436;-44
2024/02/13 10:41:33;;;;;;;243.80;79.07;;;;;;;;;;4991935;28;20542;-44
2024/02/13 10:44:00;;;;;;;244.75;80.47;;;;;;;;;;4992030;28;20181;-45
2024/02/13 10:46:30;;;;;;;242.85;77.57;;;;;;;;;;4991744;28;20206;-45
2024/02/13 10:49:05;;;;;;;244.65;80.57;;;;;;;;;;4992005;28;20275;-45
2024/02/13 10:51:33;;;;;;;245.13;80.15;;;;;;;;;;4991751;28;20184;-44
2024/02/13 10:54:04;;;;;;;245.15;77.97;;;;;;;;;;4991969;28;20659;-45
2024/02/13 10:56:33;;;;;;;249.95;83.70;;;;;;;;;;4991477;28;20706;-44
2024/02/13 10:58:59;;;;;;;245.65;78.65;;;;;;;;;;4991590;28;20211;-44
2024/02/13 11:01:26;;;;;;;245.67;78.93;;;;;;;;;;4991423;28;20660;-44
2024/02/13 11:03:53;;;;;;;244.88;77.68;;;;;;;;;;4991893;28;20772;-44
2024/02/13 11:06:20;;;;;;;248.32;81.45;;;;;;;;;;4994354;28;20198;-44
2024/02/13 11:08:45;;;;;;;245.02;81.05;;;;;;;;;;4995637;28;20188;-44
2024/02/13 11:11:16;;;;;;;244.73;78.17;;;;;;;;;;4995430;28;20177;-44
2024/02/13 11:13:42;;;;;;;247.82;82.00;;;;;;;;;;4995930;28;20414;-44
2024/02/13 11:16:10;;;;;;;246.68;79.78;;;;;;;;;;4995252;28;20187;-44
2024/02/13 11:18:44;;;;;;;247.45;82.07;;;;;;;;;;4995423;28;20244;-44
2024/02/13 11:21:10;;;;;;;251.25;86.18;;;;;;;;;;4994155;28;20187;-44
2024/02/13 11:23:37;;;;;;;248.65;82.70;;;;;;;;;;4994873;28;20208;-44
2024/02/13 11:26:04;;;;;;;249.73;82.80;;;;;;;;;;4994685;28;20208;-45
2024/02/13 11:28:33;;;;;;;249.30;81.95;;;;;;;;;;4994879;28;20226;-45
2024/02/13 11:31:00;;;;;;;250.73;84.47;;;;;;;;;;4994910;28;20177;-45
2024/02/13 11:33:25;;;;;;;252.45;84.97;;;;;;;;;;4994930;28;20170;-45
2024/02/13 11:35:54;;;;;;;247.47;81.20;;;;;;;;;;4994873;28;20214;-44
2024/02/13 11:38:21;;;;;;;250.50;85.35;;;;;;;;;;4993888;28;20412;-44
2024/02/13 11:40:54;;;;;;;249.27;84.20;;;;;;;;;;4995530;28;20183;-43
2024/02/13 11:43:20;;;;;;;252.00;85.28;;;;;;;;;;4995040;28;20190;-44
2024/02/13 11:45:46;;;;;;;245.00;79.13;;;;;;;;;;4995034;28;20545;-44
2024/02/13 11:48:16;;;;;;;245.75;80.72;;;;;;;;;;4986374;28;20951;-44
2024/02/13 11:50:42;;;;;;;244.75;81.13;;;;;;;;;;4995430;28;20831;-44
2024/02/13 11:53:08;;;;;;;245.23;79.97;;;;;;;;;;4994816;28;20169;-44
2024/02/13 11:55:34;;;;;;;246.37;81.90;;;;;;;;;;4994705;28;20195;-45
2024/02/13 11:58:02;;;;;;;249.07;83.15;;;;;;;;;;4994301;28;21145;-44
2024/02/13 12:00:29;;;;;;;254.93;89.53;;;;;;;;;;4993289;28;20579;-44
2024/02/13 12:02:55;;;;;;;246.33;81.67;;;;;;;;;;4993529;28;20179;-45
2024/02/13 12:05:26;;;;;;;252.88;85.82;;;;;;;;;;4993188;28;21012;-45
2024/02/13 12:07:52;;;;;;;249.15;83.45;;;;;;;;;;4994349;28;20534;-45
2024/02/13 12:10:19;;;;;;;249.10;85.27;;;;;;;;;;4994223;28;20192;-45
2024/02/13 12:12:45;;;;;;;251.32;86.78;;;;;;;;;;4994235;28;20838;-45
2024/02/13 12:15:15;;;;;;;258.90;93.53;;;;;;;;;;4994030;28;20240;-45
2024/02/13 12:17:43;;;;;;;252.50;86.85;;;;;;;;;;4994075;28;20423;-45
2024/02/13 12:20:12;;;;;;;252.38;85.80;;;;;;;;;;4994176;28;20198;-45
2024/02/13 12:22:40;;;;;;;252.15;87.15;;;;;;;;;;4993041;28;20183;-45
2024/02/13 12:25:07;;;;;;;256.17;89.15;;;;;;;;;;4993846;28;20265;-45
2024/02/13 12:27:33;;;;;;;249.65;86.07;;;;;;;;;;4994115;28;20649;-45
2024/02/13 12:29:59;;;;;;;252.48;86.32;;;;;;;;;;4994057;28;20208;-45
2024/02/13 12:32:25;;;;;;;250.88;84.07;;;;;;;;;;4994081;28;20197;-45
2024/02/13 12:34:54;;;;;;;249.93;80.82;;;;;;;;;;4994003;28;20257;-45
2024/02/13 12:37:20;;;;;;;253.27;85.68;;;;;;;;;;4993443;28;20176;-44
2024/02/13 12:39:47;;;;;;;249.50;83.03;;;;;;;;;;4993579;28;20200;-45
2024/02/13 12:42:16;;;;;;;251.00;83.03;;;;;;;;;;4993552;28;20180;-45
2024/02/13 12:44:44;;;;;;;250.73;81.80;;;;;;;;;;4993427;28;20170;-45
2024/02/13 12:47:13;;;;;;;250.95;81.70;;;;;;;;;;4993538;28;20212;-45
2024/02/13 12:49:42;;;;;;;250.45;83.65;;;;;;;;;;4993656;28;20613;-45
2024/02/13 12:52:11;;;;;;;252.77;84.85;;;;;;;;;;4993931;28;20173;-44
2024/02/13 12:54:44;;;;;;;251.82;85.90;;;;;;;;;;4991486;28;20639;-44
2024/02/13 12:57:11;;;;;;;248.93;83.43;;;;;;;;;;4993754;28;20187;-44
2024/02/13 12:59:38;;;;;;;248.25;80.78;;;;;;;;;;4993250;28;20304;-45
2024/02/13 13:02:08;;;;;;;249.38;83.15;;;;;;;;;;4993638;28;20219;-45
2024/02/13 13:04:35;;;;;;;251.13;84.35;;;;;;;;;;4993472;28;20418;-46
2024/02/13 13:07:03;;;;;;;250.95;83.65;;;;;;;;;;4993418;28;20209;-44
2024/02/13 13:09:29;;;;;;;252.80;84.95;;;;;;;;;;4993544;28;20196;-45
2024/02/13 13:11:55;;;;;;;252.23;83.77;;;;;;;;;;4993440;28;20176;-45
2024/02/13 13:14:21;;;;;;;251.45;84.00;;;;;;;;;;4993415;28;20423;-45
2024/02/13 13:16:47;;;;;;;252.23;85.00;;;;;;;;;;4993308;28;20644;-44
2024/02/13 13:19:13;;;;;;;249.57;83.82;;;;;;;;;;4993816;28;20433;-45
2024/02/13 13:21:42;;;;;;;248.17;82.50;;;;;;;;;;4993308;28;20188;-44
2024/02/13 13:24:10;;;;;;;249.00;82.25;;;;;;;;;;4993363;28;20448;-45
2024/02/13 13:26:39;;;;;;;247.50;80.68;;;;;;;;;;4992138;28;20193;-45
2024/02/13 13:29:06;;;;;;;249.60;81.97;;;;;;;;;;4990991;28;20203;-44
2024/02/13 13:31:40;;;;;;;248.02;78.57;;;;;;;;;;4992631;28;20176;-44
2024/02/13 13:34:08;;;;;;;252.63;82.65;;;;;;;;;;4992945;28;20203;-45
2024/02/13 13:36:35;;;;;;;249.43;81.43;;;;;;;;;;4992353;28;20234;-44
2024/02/13 13:39:03;;;;;;;251.93;82.22;;;;;;;;;;4991401;28;20200;-44
2024/02/13 13:41:30;;;;;;;248.73;81.30;;;;;;;;;;4992470;28;20184;-45
2024/02/13 13:43:56;;;;;;;250.05;83.50;;;;;;;;;;4992487;28;20169;-44
2024/02/13 13:46:22;;;;;;;251.57;85.83;;;;;;;;;;4992296;28;20210;-45
2024/02/13 13:48:48;;;;;;;250.75;85.05;;;;;;;;;;4992342;28;20428;-45
2024/02/13 13:51:14;;;;;;;250.52;84.03;;;;;;;;;;4992530;28;20173;-45
2024/02/13 13:53:40;;;;;;;249.50;85.00;;;;;;;;;;4992515;28;20173;-44
2024/02/13 13:56:07;;;;;;;246.43;81.43;;;;;;;;;;4992266;28;20408;-45
2024/02/13 13:58:33;;;;;;;248.82;82.82;;;;;;;;;;4991918;28;20432;-45
2024/02/13 14:01:00;;;;;;;248.13;80.50;;;;;;;;;;4992227;28;20651;-45
2024/02/13 14:03:30;;;;;;;248.05;81.22;;;;;;;;;;4992209;28;20181;-44
2024/02/13 14:05:56;;;;;;;247.68;81.57;;;;;;;;;;4991655;28;20196;-44